Terminal Aerodrome Forecast
Issued by NWS Sioux Falls, SD

Home | Current Version | Previous Version | Text Only | Print | Product List | Glossary Off
Versions: 1 2 3 4 5 6 7 8 9 10 11 12 13 14 15 16 17 18 19 20 21 22 23 24 25 26 27 28

000
FTUS43 KFSD 290228 CCA
TAFFSD
TAF COR
KFSD 290228Z 2902/2924 10008KT P6SM VCTS OVC006CB
      TEMPO 2902/2904 6SM SHRA SCT006 BKN015
     FM290400 VRB04KT 5SM BR BKN006
     FM290900 15005KT 2SM BR OVC005
     FM291500 VRB05KT 4SM BR OVC009
     FM291800 25006KT P6SM BKN035=

USA.gov is the U.S. government's official web portal to all federal, state and local government web resources and services.